Time;durP1;ratioP1;P1;durP2;ratioP2;P2;SDS_P1;SDS_P2;PMS_P1;PMS_P2;Temp;Humidity;BMP_temperature;BMP_pressure;BME280_temperature;BME280_humidity;BME280_pressure;Samples;Min_cycle;Max_cycle;Signal;HPM_P1;HPM_P2
2023/04/28 00:00:10;;;;;;;7.50;5.45;;;;;;;12.04;56.50;96574.63;5041591;28;20051;-83
2023/04/28 00:02:38;;;;;;;8.13;4.82;;;;;;;12.06;56.54;96572.63;5041506;28;20148;-86
2023/04/28 00:05:06;;;;;;;6.60;4.50;;;;;;;12.10;59.81;96573.88;5041095;28;20309;-84
2023/04/28 00:07:34;;;;;;;6.00;4.57;;;;;;;12.16;59.84;96573.09;5040933;28;20045;-85
2023/04/28 00:10:02;;;;;;;7.20;4.95;;;;;;;12.18;57.81;96576.34;5039546;28;20101;-83
2023/04/28 00:12:31;;;;;;;9.07;5.20;;;;;;;12.15;56.78;96571.47;5039969;28;20050;-83
2023/04/28 00:14:58;;;;;;;9.10;5.07;;;;;;;12.11;56.66;96562.38;5040235;28;20045;-83
2023/04/28 00:17:26;;;;;;;11.68;5.80;;;;;;;12.10;56.26;96552.94;5039363;28;20050;-81
2023/04/28 00:19:53;;;;;;;9.93;4.80;;;;;;;12.08;56.29;96549.72;5038748;28;20112;-80
2023/04/28 00:22:21;;;;;;;8.10;4.82;;;;;;;12.08;56.72;96541.88;5039993;28;20050;-83
2023/04/28 00:24:49;;;;;;;7.00;4.72;;;;;;;12.11;58.71;96546.69;5039183;28;20055;-82
2023/04/28 00:27:16;;;;;;;8.77;5.07;;;;;;;12.11;56.97;96544.09;5039019;28;20091;-81
2023/04/28 00:29:46;;;;;;;10.70;4.70;;;;;;;12.06;56.46;96536.81;5038246;28;20099;-82
2023/04/28 00:32:13;;;;;;;5.65;4.05;;;;;;;12.04;56.47;96527.56;5037671;28;20055;-86
2023/04/28 00:34:41;;;;;;;4.28;3.70;;;;;;;12.01;56.67;96523.53;5038341;28;20053;-80
2023/04/28 00:37:08;;;;;;;6.15;4.32;;;;;;;12.02;56.69;96519.09;5038566;28;20133;-83
2023/04/28 00:39:36;;;;;;;6.82;4.32;;;;;;;12.04;57.85;96522.34;5038755;28;20045;-80
2023/04/28 00:42:04;;;;;;;5.90;4.18;;;;;;;12.05;57.42;96527.38;5041025;28;20429;-79
2023/04/28 00:44:31;;;;;;;5.20;3.92;;;;;;;12.07;57.50;96516.72;5040554;28;20053;-79
2023/04/28 00:47:00;;;;;;;6.57;4.10;;;;;;;12.08;56.97;96518.34;5040651;28;20049;-80
2023/04/28 00:49:28;;;;;;;7.25;4.35;;;;;;;12.08;56.75;96518.34;5040900;28;20041;-79
2023/04/28 00:51:56;;;;;;;7.72;3.50;;;;;;;12.07;56.78;96506.25;5040903;28;20472;-84
2023/04/28 00:54:24;;;;;;;7.13;5.03;;;;;;;12.07;56.75;96511.47;5040960;28;20061;-82
2023/04/28 00:56:52;;;;;;;6.60;3.92;;;;;;;12.08;59.16;96506.06;5043471;28;20045;-86
2023/04/28 01:01:47;;;;;;;6.82;4.28;;;;;;;12.09;57.11;96504.25;5032714;28;20056;-79
2023/04/28 01:04:19;;;;;;;6.30;3.70;;;;;;;12.09;57.20;96515.53;5035628;28;20050;-79
2023/04/28 01:06:49;;;;;;;4.93;3.45;;;;;;;12.11;57.43;96507.47;5040204;28;20048;-79
2023/04/28 01:09:16;;;;;;;5.13;4.60;;;;;;;12.15;58.18;96508.72;5039206;28;20050;-79
2023/04/28 01:11:44;;;;;;;4.60;3.92;;;;;;;12.18;58.53;96513.56;5036646;28;20049;-79
2023/04/28 01:14:11;;;;;;;5.05;3.80;;;;;;;12.16;57.39;96510.34;5035372;28;20061;-78
2023/04/28 01:16:40;;;;;;;5.18;3.55;;;;;;;12.14;57.88;96502.69;5035297;28;20049;-79
2023/04/28 01:19:08;;;;;;;4.22;3.58;;;;;;;12.15;57.86;96499.06;5035394;28;20046;-79
2023/04/28 01:21:37;;;;;;;6.55;4.18;;;;;;;12.13;57.96;96490.63;5034877;28;20056;-79
2023/04/28 01:24:07;;;;;;;7.63;4.03;;;;;;;12.11;57.63;96489.19;5034877;28;20045;-79
2023/04/28 01:26:35;;;;;;;5.20;3.65;;;;;;;12.07;57.27;96501.03;5035071;28;20053;-78
2023/04/28 01:29:02;;;;;;;4.70;3.95;;;;;;;12.02;57.34;96499.00;5034960;28;20055;-78
2023/04/28 01:31:30;;;;;;;6.10;4.57;;;;;;;12.00;57.31;96501.00;5034491;28;20049;-79
2023/04/28 01:33:58;;;;;;;6.38;4.63;;;;;;;11.95;57.47;96500.78;5034319;28;20056;-79
2023/04/28 01:36:26;;;;;;;7.22;4.55;;;;;;;11.92;57.78;96495.94;5035218;28;20507;-79
2023/04/28 01:38:53;;;;;;;6.05;4.53;;;;;;;11.91;57.77;96499.53;5034246;28;20425;-79
2023/04/28 01:41:22;;;;;;;6.32;4.68;;;;;;;11.93;57.89;96503.56;5034626;28;20056;-79
2023/04/28 01:43:50;;;;;;;5.68;4.93;;;;;;;11.94;57.89;96499.97;5034070;28;20055;-79
2023/04/28 01:46:18;;;;;;;6.13;4.35;;;;;;;11.97;57.97;96484.91;5034410;28;20041;-79
2023/04/28 01:48:46;;;;;;;6.75;4.30;;;;;;;12.00;58.29;96479.28;5035378;28;20041;-79
2023/04/28 01:51:13;;;;;;;5.15;4.28;;;;;;;12.04;58.66;96480.50;5034800;28;20057;-79
2023/04/28 01:53:41;;;;;;;5.65;4.20;;;;;;;12.07;60.07;96482.72;5034860;28;20497;-79
2023/04/28 01:56:08;;;;;;;6.30;4.35;;;;;;;12.09;60.12;96472.88;5035614;28;20050;-79
2023/04/28 01:58:37;;;;;;;7.50;4.40;;;;;;;12.11;60.05;96463.03;5034159;28;20049;-79
2023/04/28 02:01:05;;;;;;;6.32;4.10;;;;;;;12.13;60.17;96461.88;5035258;28;20520;-79
2023/04/28 02:03:33;;;;;;;5.82;4.22;;;;;;;12.16;59.85;96455.44;5034425;28;20049;-79
2023/04/28 02:06:01;;;;;;;4.60;3.80;;;;;;;12.15;59.95;96461.66;5033955;28;20045;-79
2023/04/28 02:08:28;;;;;;;5.28;3.65;;;;;;;12.12;59.80;96451.59;5033408;28;20054;-79
2023/04/28 02:10:56;;;;;;;8.32;4.30;;;;;;;12.10;60.02;96459.63;5033788;28;20045;-79
2023/04/28 02:13:24;;;;;;;5.45;4.10;;;;;;;12.11;60.46;96465.66;5033416;28;20055;-78
2023/04/28 02:15:53;;;;;;;6.32;3.78;;;;;;;12.13;60.67;96474.09;5033838;28;20059;-79
2023/04/28 02:18:20;;;;;;;4.15;3.72;;;;;;;12.14;60.49;96473.13;5033441;28;20053;-78
2023/04/28 02:20:48;;;;;;;6.53;3.60;;;;;;;12.16;60.98;96468.50;5034241;28;20049;-79
2023/04/28 02:23:16;;;;;;;6.25;3.78;;;;;;;12.19;61.33;96469.91;5034467;28;20059;-79
2023/04/28 02:25:43;;;;;;;4.95;3.63;;;;;;;12.20;60.25;96467.13;5037013;28;20054;-79
2023/04/28 02:28:11;;;;;;;4.43;3.28;;;;;;;12.20;60.90;96463.66;5035319;28;20125;-79
2023/04/28 02:30:39;;;;;;;4.68;3.47;;;;;;;12.22;61.21;96467.69;5035829;28;20049;-79
2023/04/28 02:33:08;;;;;;;5.63;3.65;;;;;;;12.24;61.80;96476.16;5036592;28;20056;-79
2023/04/28 02:35:36;;;;;;;7.95;3.72;;;;;;;12.26;62.00;96479.38;5033522;28;20056;-79
2023/04/28 02:38:03;;;;;;;4.90;4.20;;;;;;;12.24;61.22;96470.94;5033625;28;20053;-79
2023/04/28 02:40:31;;;;;;;8.32;5.50;;;;;;;12.15;61.32;96461.66;5033340;28;20049;-79
2023/04/28 02:42:59;;;;;;;7.95;5.22;;;;;;;12.11;61.72;96463.03;5033595;28;20100;-79
2023/04/28 02:45:27;;;;;;;6.57;5.03;;;;;;;12.07;62.72;96465.25;5033278;28;20055;-79
2023/04/28 02:47:54;;;;;;;4.97;3.90;;;;;;;12.04;62.36;96449.94;5033119;28;20057;-79
2023/04/28 02:50:23;;;;;;;5.95;4.55;;;;;;;12.00;63.46;96455.75;5033080;28;20053;-79
2023/04/28 02:52:51;;;;;;;9.30;4.90;;;;;;;11.93;62.94;96448.66;5039905;28;20072;-79
2023/04/28 02:55:22;;;;;;;7.97;4.68;;;;;;;11.83;63.14;96437.75;5041178;28;20060;-79
2023/04/28 02:57:50;;;;;;;9.73;5.25;;;;;;;11.74;63.34;96433.66;5036010;28;20080;-79
2023/04/28 03:00:19;;;;;;;6.70;4.68;;;;;;;11.69;64.27;96430.84;5033149;28;20132;-79
2023/04/28 03:02:46;;;;;;;5.78;4.47;;;;;;;11.70;64.75;96422.00;5032302;28;20049;-78
2023/04/28 03:05:14;;;;;;;5.95;4.75;;;;;;;11.71;65.16;96428.84;5032992;28;20571;-79
2023/04/28 03:07:43;;;;;;;4.95;4.45;;;;;;;11.71;64.90;96431.44;5033027;28;20092;-79
2023/04/28 03:10:11;;;;;;;4.80;4.40;;;;;;;11.71;64.80;96424.41;5032853;28;20049;-79
2023/04/28 03:12:38;;;;;;;6.55;4.18;;;;;;;11.71;64.94;96416.56;5033134;28;20050;-79
2023/04/28 03:15:07;;;;;;;6.13;4.20;;;;;;;11.73;65.93;96422.41;5032687;28;20041;-78
2023/04/28 03:17:37;;;;;;;5.60;4.20;;;;;;;11.75;65.74;96423.03;5032698;28;20046;-79
2023/04/28 03:20:06;;;;;;;6.00;4.03;;;;;;;11.77;65.66;96416.81;5033926;28;20471;-79
2023/04/28 03:22:34;;;;;;;6.18;4.30;;;;;;;11.78;65.28;96423.66;5032422;28;20057;-79
2023/04/28 03:25:04;;;;;;;5.28;3.83;;;;;;;11.76;65.59;96429.06;5033322;28;20124;-78
2023/04/28 03:27:31;;;;;;;6.53;3.72;;;;;;;11.76;65.84;96426.44;5033729;28;20060;-79
2023/04/28 03:29:59;;;;;;;5.47;4.03;;;;;;;11.78;66.08;96424.44;5033316;28;20046;-81
2023/04/28 03:32:27;;;;;;;5.88;3.58;;;;;;;11.78;65.87;96418.41;5032598;28;20046;-79
2023/04/28 03:34:54;;;;;;;5.82;3.70;;;;;;;11.75;65.83;96403.94;5032179;28;20465;-79
2023/04/28 03:37:22;;;;;;;4.90;3.70;;;;;;;11.74;66.04;96412.75;5033843;28;20049;-79
2023/04/28 03:39:50;;;;;;;5.60;3.50;;;;;;;11.70;66.27;96396.69;5032144;28;20049;-79
2023/04/28 03:42:19;;;;;;;6.43;3.67;;;;;;;11.69;66.43;96397.66;5032274;28;20045;-79
2023/04/28 03:44:46;;;;;;;8.60;4.47;;;;;;;11.66;66.29;96389.44;5032762;28;20055;-79
2023/04/28 03:47:14;;;;;;;4.57;3.40;;;;;;;11.63;66.39;96374.13;5036069;28;20053;-79
2023/04/28 03:49:41;;;;;;;4.78;3.70;;;;;;;11.63;66.50;96376.72;5046563;28;20064;-79
2023/04/28 03:52:09;;;;;;;6.25;3.55;;;;;;;11.59;66.54;96380.72;5052300;28;20056;-79
2023/04/28 03:54:36;;;;;;;5.57;3.55;;;;;;;11.58;66.69;96387.75;5051754;28;20300;-79
2023/04/28 03:57:04;;;;;;;5.53;3.58;;;;;;;11.61;66.65;96381.34;5038845;28;20061;-79
2023/04/28 03:59:33;;;;;;;7.13;4.10;;;;;;;11.61;66.80;96387.41;5032627;28;20045;-79
2023/04/28 04:02:00;;;;;;;4.85;3.65;;;;;;;11.61;66.80;96381.34;5032960;28;20049;-78
2023/04/28 04:04:28;;;;;;;4.55;3.83;;;;;;;11.60;66.78;96380.53;5033835;28;20128;-79
2023/04/28 04:06:56;;;;;;;5.03;3.88;;;;;;;11.58;66.82;96376.50;5034512;28;20107;-79
2023/04/28 04:09:24;;;;;;;6.50;3.88;;;;;;;11.53;66.87;96379.72;5034376;28;20077;-79
2023/04/28 04:11:51;;;;;;;5.13;3.95;;;;;;;11.49;67.25;96388.94;5032625;28;20045;-79
2023/04/28 04:14:19;;;;;;;9.63;4.05;;;;;;;11.45;67.38;96383.28;5034758;28;20065;-79
2023/04/28 04:16:48;;;;;;;4.45;4.05;;;;;;;11.46;68.24;96387.50;5036929;28;20053;-79
2023/04/28 04:19:16;;;;;;;6.43;3.70;;;;;;;11.48;68.10;96388.13;5037298;28;20049;-78
2023/04/28 04:21:43;;;;;;;3.83;3.42;;;;;;;11.51;68.29;96395.56;5039192;28;20053;-79
2023/04/28 04:24:11;;;;;;;5.30;4.10;;;;;;;11.58;69.48;96406.03;5037860;28;20061;-80
2023/04/28 04:26:38;;;;;;;5.45;3.83;;;;;;;11.64;69.14;96407.09;5038448;28;20046;-79
2023/04/28 04:29:06;;;;;;;7.20;3.92;;;;;;;11.68;69.07;96409.13;5036299;28;20049;-79
2023/04/28 04:31:33;;;;;;;5.32;4.10;;;;;;;11.73;69.41;96411.16;5036153;28;20068;-79
2023/04/28 04:34:02;;;;;;;9.07;4.25;;;;;;;11.74;69.00;96397.91;5035411;28;20107;-79
2023/04/28 04:36:31;;;;;;;10.48;5.90;;;;;;;11.73;67.99;96392.88;5036061;28;20060;-79
2023/04/28 04:38:59;;;;;;;14.25;5.57;;;;;;;11.67;67.74;96391.03;5035681;28;20049;-79
2023/04/28 04:41:27;;;;;;;7.93;4.57;;;;;;;11.63;67.69;96387.19;5035982;28;20436;-79
2023/04/28 04:46:58;;;;;;;6.43;4.80;;;;;;;11.52;67.57;96399.81;5043166;28;20060;-80
2023/04/28 04:50:10;;;;;;;9.43;5.05;;;;;;;11.52;67.83;96407.66;5039110;28;20053;-80
2023/04/28 05:27:56;;;;;;;8.55;5.95;;;;;;;11.26;68.03;96418.72;6287756;22;20031;-81
2023/04/28 05:31:05;;;;;;;13.48;6.10;;;;;;;11.26;70.00;96415.28;6285669;22;20412;-81
2023/04/28 05:34:00;;;;;;;13.32;5.97;;;;;;;11.32;69.53;96420.56;6292771;22;20020;-82
2023/04/28 05:36:28;;;;;;;16.10;7.07;;;;;;;11.34;68.82;96412.53;6286123;22;20364;-80
2023/04/28 05:38:55;;;;;;;11.98;6.38;;;;;;;11.34;69.31;96402.09;6286597;22;20030;-79
2023/04/28 05:41:30;;;;;;;12.27;6.53;;;;;;;11.32;68.94;96393.63;6285806;22;20015;-80
2023/04/28 05:44:00;;;;;;;6.68;5.55;;;;;;;11.30;69.90;96391.25;6284623;22;20016;-81
2023/04/28 05:46:28;;;;;;;7.28;5.55;;;;;;;11.32;70.01;96388.41;6285245;22;20022;-81
2023/04/28 05:48:58;;;;;;;7.88;5.82;;;;;;;11.31;70.04;96385.00;6284739;22;20353;-81
2023/04/28 05:51:26;;;;;;;7.88;6.00;;;;;;;11.32;69.92;96375.34;6285688;22;20026;-80
2023/04/28 05:53:54;;;;;;;6.90;6.10;;;;;;;11.30;70.11;96374.75;6284273;22;20043;-80
2023/04/28 05:56:22;;;;;;;12.63;7.30;;;;;;;11.30;69.99;96382.56;6284013;22;20112;-79
2023/04/28 05:58:50;;;;;;;10.77;6.85;;;;;;;11.24;69.76;96391.16;6284326;22;20099;-79
2023/04/28 06:01:25;;;;;;;10.70;7.07;;;;;;;11.12;70.58;96383.88;6288833;22;20022;-81
2023/04/28 06:04:23;;;;;;;11.27;7.03;;;;;;;11.01;70.73;96381.78;6294573;22;20023;-81
2023/04/28 06:10:06;;;;;;;11.77;8.10;;;;;;;10.93;71.36;96392.34;6277280;22;20035;-81
2023/04/28 06:12:54;;;;;;;10.13;7.57;;;;;;;10.91;72.04;96402.16;6285452;22;20020;-80
2023/04/28 06:15:22;;;;;;;14.10;7.63;;;;;;;10.90;71.03;96406.59;6286349;22;20062;-81
2023/04/28 06:17:54;;;;;;;16.98;9.23;;;;;;;10.89;71.67;96401.56;6284449;22;20403;-81
2023/04/28 06:20:22;;;;;;;11.52;7.43;;;;;;;10.89;71.80;96398.97;6281085;22;20098;-80
2023/04/28 06:22:50;;;;;;;10.73;7.28;;;;;;;10.89;71.73;96393.75;6278562;22;20016;-81
2023/04/28 06:25:18;;;;;;;9.15;7.32;;;;;;;10.87;71.67;96391.31;6277500;22;20608;-80
2023/04/28 06:27:46;;;;;;;7.55;6.60;;;;;;;10.85;71.55;96387.28;6278022;22;20016;-80
2023/04/28 06:30:19;;;;;;;8.63;6.93;;;;;;;10.81;71.79;96389.47;6277618;22;20019;-80
2023/04/28 06:32:47;;;;;;;;;;;;;;;10.77;72.04;96390.81;6278786;22;20471;-81
2023/04/28 06:35:17;;;;;;;9.45;6.95;;;;;;;10.72;71.69;96377.53;6277562;22;19915;-80
2023/04/28 06:37:51;;;;;;;9.48;7.43;;;;;;;10.68;72.04;96373.69;6278002;22;20016;-81
2023/04/28 06:40:26;;;;;;;12.35;7.85;;;;;;;10.63;72.02;96369.03;6277446;22;20012;-80
2023/04/28 06:42:53;;;;;;;9.45;7.30;;;;;;;10.62;72.42;96377.84;6277283;22;20047;-80
2023/04/28 06:45:21;;;;;;;11.25;8.13;;;;;;;10.60;72.54;96377.22;6276259;22;20162;-79
2023/04/28 06:47:49;;;;;;;12.73;9.23;;;;;;;10.62;72.81;96374.44;6277392;22;20327;-79
2023/04/28 06:50:19;;;;;;;14.93;8.00;;;;;;;10.64;72.96;96381.06;6277143;22;20016;-80
2023/04/28 06:52:46;;;;;;;13.18;8.38;;;;;;;10.65;72.71;96374.09;6280184;22;20016;-81
2023/04/28 07:06:48;;;;;;;11.98;9.10;;;;;;;10.59;73.47;96359.97;6216857;22;20345;-80
2023/04/28 07:09:19;;;;;;;10.35;8.23;;;;;;;10.60;73.69;96356.34;6218610;23;20020;-81
2023/04/28 07:12:01;;;;;;;12.02;9.43;;;;;;;10.60;73.69;96352.94;6242289;22;20020;-78
2023/04/28 07:14:28;;;;;;;10.77;9.13;;;;;;;10.61;73.94;96354.59;6246051;23;20020;-78
2023/04/28 07:16:56;;;;;;;12.45;9.50;;;;;;;10.65;74.16;96356.63;6245826;23;20021;-78
2023/04/28 07:49:15;;;;;;;10.77;8.07;;;;;;;11.10;76.62;96359.75;6254299;22;20223;-81
2023/04/28 07:54:56;;;;;;;10.60;7.88;;;;;;;11.17;77.65;96364.22;6237729;23;20036;-82
2023/04/28 07:57:25;;;;;;;11.48;8.35;;;;;;;11.19;76.99;96368.25;6229706;23;20415;-82
2023/04/28 07:59:53;;;;;;;10.25;8.23;;;;;;;11.24;77.29;96345.00;6226975;23;20017;-82
2023/04/28 08:02:22;;;;;;;8.85;7.05;;;;;;;11.30;77.70;96330.34;6220769;23;20066;-82
2023/04/28 08:04:53;;;;;;;10.43;7.78;;;;;;;11.38;78.07;96324.97;6223647;23;20068;-81
2023/04/28 08:07:21;;;;;;;10.27;7.88;;;;;;;11.48;78.03;96333.28;6217736;23;20100;-81
2023/04/28 08:09:49;;;;;;;8.43;7.53;;;;;;;11.56;77.74;96324.44;6216595;23;20039;-81
2023/04/28 08:12:20;;;;;;;9.43;6.93;;;;;;;11.60;77.50;96328.28;6215768;23;20051;-80
2023/04/28 08:14:48;;;;;;;8.60;7.30;;;;;;;11.64;77.99;96334.75;6216577;23;20024;-79
2023/04/28 08:17:17;;;;;;;7.68;6.90;;;;;;;11.67;78.36;96336.94;6218772;23;20027;-81
2023/04/28 08:19:47;;;;;;;9.55;7.10;;;;;;;11.73;77.95;96336.19;6218158;23;20025;-81
2023/04/28 08:22:16;;;;;;;7.43;6.72;;;;;;;11.78;78.28;96346.03;6219590;23;20079;-81
2023/04/28 08:24:45;;;;;;;9.52;7.82;;;;;;;11.78;78.20;96335.59;6217910;23;20051;-82
2023/04/28 08:30:24;;;;;;;10.57;8.85;;;;;;;11.82;78.42;96330.78;6283400;22;20523;-81
2023/04/28 08:41:40;;;;;;;7.67;6.83;;;;;;;12.01;78.69;96347.59;6260671;22;20046;-81
2023/04/28 08:45:05;;;;;;;8.18;6.10;;;;;;;12.04;79.30;96355.03;6260811;23;20273;-81
2023/04/28 08:47:48;;;;;;;6.25;5.60;;;;;;;12.04;78.38;96355.03;6180038;23;20027;-81
2023/04/28 08:50:21;;;;;;;6.70;6.07;;;;;;;12.08;78.86;96366.69;6250556;23;20035;-81
2023/04/28 08:52:57;;;;;;;7.18;6.07;;;;;;;12.07;79.26;96370.31;6257181;23;20050;-81
2023/04/28 08:55:31;;;;;;;6.95;5.38;;;;;;;12.05;78.92;96373.13;6249111;23;20020;-81
2023/04/28 08:58:03;;;;;;;6.43;5.82;;;;;;;12.06;79.44;96373.94;6247040;23;20016;-81
2023/04/28 09:00:31;;;;;;;5.57;4.90;;;;;;;12.09;79.41;96373.53;6246438;23;20018;-81
2023/04/28 09:02:59;;;;;;;7.38;5.50;;;;;;;12.11;79.49;96377.59;6250071;23;20024;-81
2023/04/28 09:05:27;;;;;;;5.68;5.10;;;;;;;12.19;79.78;96378.41;6251571;23;20025;-81
2023/04/28 09:07:55;;;;;;;6.18;5.55;;;;;;;12.24;79.58;96378.59;6248898;23;20032;-81
2023/04/28 09:10:24;;;;;;;6.55;5.85;;;;;;;12.30;79.44;96376.00;6247043;23;20016;-79
2023/04/28 09:12:54;;;;;;;8.85;6.00;;;;;;;12.36;79.32;96375.22;6245783;23;20020;-80
2023/04/28 09:15:50;;;;;;;6.18;5.05;;;;;;;12.41;79.73;96368.59;6251426;23;20052;-81
2023/04/28 09:18:24;;;;;;;5.90;5.32;;;;;;;12.43;79.29;96369.19;6249424;23;20070;-81
2023/04/28 09:21:41;;;;;;;5.13;4.35;;;;;;;12.44;80.06;96366.38;6254571;23;20480;-82
2023/04/28 09:24:28;;;;;;;5.47;4.53;;;;;;;12.50;79.96;96370.81;6248302;23;20024;-79
2023/04/28 09:26:56;;;;;;;5.65;4.32;;;;;;;12.56;79.27;96370.00;6246543;23;20524;-81
2023/04/28 09:29:24;;;;;;;5.18;3.97;;;;;;;12.61;79.16;96366.78;6246628;23;20357;-78
2023/04/28 09:31:53;;;;;;;5.70;4.00;;;;;;;12.68;79.22;96372.84;6245716;23;20103;-76
2023/04/28 09:34:21;;;;;;;5.95;4.15;;;;;;;12.78;79.28;96375.06;6244795;23;20023;-77
2023/04/28 09:36:49;;;;;;;6.55;4.75;;;;;;;12.92;79.27;96368.00;6245138;23;20021;-77
2023/04/28 09:39:28;;;;;;;4.85;4.22;;;;;;;13.04;79.32;96370.84;6245987;23;20529;-80
2023/04/28 09:41:56;;;;;;;5.93;3.85;;;;;;;13.10;78.76;96370.03;6247447;23;20016;-80
2023/04/28 09:44:23;;;;;;;4.03;3.53;;;;;;;13.13;78.83;96375.66;6249479;23;20024;-79
2023/04/28 09:46:52;;;;;;;3.97;2.92;;;;;;;13.13;78.98;96375.66;6251272;23;20441;-78
2023/04/28 09:49:20;;;;;;;4.85;3.35;;;;;;;13.12;78.84;96379.28;6264485;23;20024;-78
2023/04/28 09:51:49;;;;;;;3.95;2.80;;;;;;;13.14;79.12;96385.13;6263890;23;20043;-77
2023/04/28 09:54:17;;;;;;;6.85;3.17;;;;;;;13.16;79.50;96377.88;6261519;23;20050;-81
2023/04/28 09:56:47;;;;;;;5.10;3.55;;;;;;;13.24;80.15;96386.53;6263887;23;20053;-81
2023/04/28 09:59:15;;;;;;;3.95;1.83;;;;;;;13.28;79.58;96377.25;6255381;23;20070;-80
2023/04/28 10:01:43;;;;;;;3.13;2.63;;;;;;;13.30;79.39;96380.50;6248706;23;20023;-77
2023/04/28 10:04:13;;;;;;;2.20;2.00;;;;;;;13.33;79.59;96375.66;6246413;23;20024;-77
2023/04/28 10:06:42;;;;;;;3.15;2.20;;;;;;;13.37;79.54;96366.38;6245679;23;20094;-78
2023/04/28 10:09:11;;;;;;;2.63;1.95;;;;;;;13.43;79.18;96370.00;6246223;23;20024;-76
2023/04/28 10:11:39;;;;;;;2.55;2.17;;;;;;;13.51;79.44;96359.31;6245638;23;20020;-79
2023/04/28 10:14:07;;;;;;;5.05;2.63;;;;;;;13.59;79.24;96361.69;6253425;23;20008;-76
2023/04/28 10:16:34;;;;;;;2.40;2.05;;;;;;;13.72;79.45;96354.78;6271725;23;20044;-77
2023/04/28 10:19:03;;;;;;;2.67;2.08;;;;;;;13.84;79.61;96347.91;6269965;23;20050;-77
2023/04/28 10:21:40;;;;;;;1.75;1.65;;;;;;;13.94;79.58;96347.44;6249323;23;20091;-79
2023/04/28 10:24:10;;;;;;;2.58;1.73;;;;;;;14.00;79.49;96344.78;6247912;23;20020;-77
2023/04/28 10:27:02;;;;;;;1.80;1.70;;;;;;;14.07;80.50;96347.38;6246913;23;20020;-78
2023/04/28 10:29:32;;;;;;;1.27;1.17;;;;;;;14.15;79.06;96346.34;6248927;22;20119;-77
2023/04/28 10:32:20;;;;;;;1.70;1.60;;;;;;;14.19;80.07;96350.13;6244400;23;20020;-77
2023/04/28 10:34:48;;;;;;;1.10;1.10;;;;;;;14.24;79.29;96352.94;6244293;23;20047;-78
2023/04/28 10:37:18;;;;;;;1.73;1.60;;;;;;;14.30;79.36;96339.00;6244364;23;20454;-78
2023/04/28 10:40:23;;;;;;;3.28;2.10;;;;;;;14.35;80.17;96352.28;6243954;23;20103;-78
2023/04/28 10:42:52;;;;;;;15.18;7.63;;;;;;;14.38;79.65;96351.84;6243997;23;20024;-77
2023/04/28 10:45:53;;;;;;;14.32;8.90;;;;;;;14.39;79.85;96361.34;6245487;23;20047;-78
2023/04/28 10:48:44;;;;;;;5.55;4.00;;;;;;;14.37;79.80;96352.88;6246735;23;20046;-78
2023/04/28 10:51:23;;;;;;;4.32;2.95;;;;;;;14.39;80.30;96353.47;6246031;23;20020;-78
2023/04/28 10:54:20;;;;;;;3.90;1.60;;;;;;;14.41;79.99;96350.63;6246337;23;20024;-77
2023/04/28 10:57:20;;;;;;;6.90;3.95;;;;;;;14.43;79.98;96354.66;6246675;23;20027;-77
2023/04/28 10:59:49;;;;;;;9.48;6.15;;;;;;;14.44;79.56;96352.81;6246586;23;20020;-77
2023/04/28 11:02:36;;;;;;;13.98;8.02;;;;;;;14.43;80.40;96359.91;6246956;23;20104;-80
2023/04/28 11:05:12;;;;;;;10.68;6.10;;;;;;;14.47;80.02;96354.22;6255250;23;20051;-78
2023/04/28 11:07:39;;;;;;;7.03;5.43;;;;;;;14.52;80.08;96352.56;6269298;23;20075;-78
2023/04/28 11:10:09;;;;;;;8.85;6.40;;;;;;;14.55;79.97;96352.16;6269549;23;20051;-77
2023/04/28 11:12:36;;;;;;;9.23;5.82;;;;;;;14.61;80.09;96355.78;6269705;23;20073;-78
2023/04/28 11:15:12;;;;;;;14.30;7.70;;;;;;;14.66;81.00;96358.56;6249242;23;20027;-78
2023/04/28 11:17:41;;;;;;;5.07;3.28;;;;;;;14.70;80.38;96358.94;6247429;23;20027;-78
2023/04/28 11:20:12;;;;;;;2.40;2.00;;;;;;;14.72;80.58;96352.47;6247254;23;20031;-77
2023/04/28 11:22:40;;;;;;;2.58;1.70;;;;;;;14.74;80.24;96354.88;6246499;23;20477;-78
2023/04/28 11:25:09;;;;;;;2.17;1.98;;;;;;;14.76;80.29;96364.16;6246291;23;20024;-77
2023/04/28 11:27:37;;;;;;;2.17;1.95;;;;;;;14.77;80.24;96355.22;6245884;23;20028;-77
2023/04/28 11:30:21;;;;;;;1.60;1.50;;;;;;;14.77;81.04;96360.47;6246462;23;20020;-78
2023/04/28 11:32:50;;;;;;;1.60;1.50;;;;;;;14.76;80.57;96372.03;6245659;23;20020;-78
2023/04/28 11:35:17;;;;;;;1.58;1.48;;;;;;;14.76;80.48;96374.66;6245523;23;20016;-78
2023/04/28 11:37:45;;;;;;;3.00;1.60;;;;;;;14.75;80.78;96375.66;6246567;23;20020;-78
2023/04/28 11:40:16;;;;;;;4.95;3.20;;;;;;;14.76;81.11;96365.97;6245953;23;20099;-78
2023/04/28 11:42:47;;;;;;;7.47;4.38;;;;;;;14.75;81.22;96380.91;6248351;23;20024;-79
2023/04/28 11:45:15;;;;;;;6.95;4.88;;;;;;;14.77;80.85;96373.63;6247416;23;20051;-78
2023/04/28 11:47:43;;;;;;;14.40;6.53;;;;;;;14.80;80.68;96369.75;6245787;23;20020;-78
2023/04/28 11:50:11;;;;;;;4.45;3.38;;;;;;;14.82;80.52;96373.78;6245190;23;20474;-78
2023/04/28 11:52:48;;;;;;;11.20;7.22;;;;;;;14.81;81.47;96377.41;6245147;23;20016;-78
2023/04/28 11:55:20;;;;;;;10.27;6.97;;;;;;;14.82;80.73;96379.03;6245341;23;20047;-78
2023/04/28 11:57:47;;;;;;;9.13;4.65;;;;;;;14.86;80.57;96379.41;6245555;23;20031;-78
2023/04/28 12:00:20;;;;;;;28.38;15.00;;;;;;;14.88;81.05;96377.38;6245921;23;20020;-77
2023/04/28 12:02:48;;;;;;;25.63;12.43;;;;;;;14.88;80.90;96371.31;6246895;23;20391;-78
2023/04/28 12:05:16;;;;;;;14.48;8.23;;;;;;;14.90;80.91;96375.34;6246136;23;20031;-77
2023/04/28 12:07:45;;;;;;;14.10;8.18;;;;;;;14.92;81.01;96380.38;6245856;23;20081;-77
2023/04/28 12:10:15;;;;;;;9.18;5.22;;;;;;;14.94;80.96;96380.97;6245265;23;20466;-77
2023/04/28 12:12:46;;;;;;;7.63;5.55;;;;;;;14.97;81.25;96375.28;6245447;23;20355;-78
2023/04/28 12:15:19;;;;;;;6.45;3.67;;;;;;;14.99;80.90;96373.25;6245755;23;20024;-77
2023/04/28 12:17:49;;;;;;;6.60;4.47;;;;;;;15.03;80.90;96366.56;6246116;23;20048;-78
2023/04/28 12:20:35;;;;;;;6.80;4.20;;;;;;;15.13;81.31;96361.63;6245971;23;20401;-78
2023/04/28 12:23:04;;;;;;;6.07;4.35;;;;;;;15.24;80.72;96371.41;6246161;23;20119;-78
2023/04/28 12:25:32;;;;;;;3.08;2.75;;;;;;;15.32;80.63;96367.69;6245777;23;20024;-77
2023/04/28 12:28:03;;;;;;;3.22;2.60;;;;;;;15.41;80.71;96361.16;6245701;23;20023;-78
2023/04/28 12:30:32;;;;;;;4.10;3.20;;;;;;;15.51;80.87;96357.19;6245898;23;20027;-78
2023/04/28 12:33:00;;;;;;;2.92;2.47;;;;;;;15.58;80.53;96366.59;6244844;23;20047;-77
2023/04/28 12:35:29;;;;;;;3.38;2.55;;;;;;;15.64;80.18;96357.84;6245637;23;20055;-78
2023/04/28 12:37:57;;;;;;;2.75;2.45;;;;;;;15.70;80.04;96352.72;6245652;23;20031;-78
2023/04/28 12:40:25;;;;;;;2.67;2.47;;;;;;;15.76;79.74;96351.88;6245377;23;20564;-78
2023/04/28 12:42:53;;;;;;;3.03;2.65;;;;;;;15.82;79.77;96356.28;6245088;23;20099;-78
2023/04/28 12:45:22;;;;;;;3.45;2.90;;;;;;;15.85;79.93;96355.81;6245907;23;20513;-78
2023/04/28 12:47:50;;;;;;;3.28;2.20;;;;;;;15.85;79.68;96361.06;6245882;23;20051;-78
2023/04/28 12:50:18;;;;;;;2.15;1.95;;;;;;;15.82;79.68;96359.69;6245580;23;20020;-78
2023/04/28 12:52:45;;;;;;;2.10;1.90;;;;;;;15.78;79.87;96363.78;6245174;23;20095;-78
2023/04/28 12:55:13;;;;;;;2.92;2.30;;;;;;;15.71;80.12;96365.69;6245047;23;20111;-78
2023/04/28 12:57:40;;;;;;;1.67;1.55;;;;;;;15.65;80.21;96370.00;6245185;23;20465;-77
2023/04/28 13:00:09;;;;;;;2.28;1.73;;;;;;;15.61;80.36;96375.88;6245563;23;20020;-78
2023/04/28 13:02:38;;;;;;;4.05;1.85;;;;;;;15.55;80.12;96382.84;6245270;23;20020;-78
2023/04/28 13:05:08;;;;;;;4.05;1.88;;;;;;;15.50;80.32;96389.75;6244619;23;20024;-78
2023/04/28 13:07:35;;;;;;;3.05;1.50;;;;;;;15.47;80.66;96374.44;6244787;23;20020;-78
2023/04/28 13:10:03;;;;;;;3.13;1.73;;;;;;;15.44;80.91;96370.41;6245322;23;20031;-78
2023/04/28 13:12:32;;;;;;;2.22;1.52;;;;;;;15.44;81.32;96373.03;6244767;23;20016;-78
2023/04/28 13:15:01;;;;;;;1.10;1.00;;;;;;;15.43;81.11;96368.78;6245323;23;20059;-78
2023/04/28 13:17:28;;;;;;;1.58;1.30;;;;;;;15.43;80.83;96366.16;6245093;23;20492;-78
2023/04/28 16:01:13;;;;;;;1.83;1.52;;;;;;;15.06;82.08;96316.19;6276452;22;20063;-82
2023/04/28 16:03:41;;;;;;;2.85;1.73;;;;;;;15.03;81.80;96321.91;6270851;22;20031;-80
2023/04/28 16:06:12;;;;;;;5.63;2.40;;;;;;;14.99;82.06;96318.09;6270932;23;20016;-80
2023/04/28 16:08:39;;;;;;;3.63;2.35;;;;;;;14.97;82.48;96304.38;6270380;22;20020;-80